Time;durP1;ratioP1;P1;durP2;ratioP2;P2;SDS_P1;SDS_P2;PMS_P1;PMS_P2;Temp;Humidity;BMP_temperature;BMP_pressure;BME280_temperature;BME280_humidity;BME280_pressure;Samples;Min_cycle;Max_cycle;Signal;HPM_P1;HPM_P2
2022/06/20 00:01:34;;;;;;;15.00;14.10;;;;;;;;;;5016969;28;20109;-65
2022/06/20 00:03:59;;;;;;;20.77;19.67;;;;;;;;;;5015523;28;20539;-65
2022/06/20 00:06:25;;;;;;;18.38;17.38;;;;;;;;;;5014446;28;20041;-66
2022/06/20 00:08:51;;;;;;;19.45;17.90;;;;;;;;;;5018213;28;20036;-65
2022/06/20 00:11:30;;;;;;;20.25;19.15;;;;;;;;;;5021237;28;20565;-65
2022/06/20 00:13:56;;;;;;;19.98;18.63;;;;;;;;;;5019804;28;20033;-65
2022/06/20 00:16:23;;;;;;;22.27;21.02;;;;;;;;;;5017187;28;20679;-65
2022/06/20 00:18:49;;;;;;;18.65;15.73;;;;;;;;;;5016246;28;20495;-65
2022/06/20 00:21:19;;;;;;;17.23;16.13;;;;;;;;;;5018203;28;20041;-65
2022/06/20 00:23:45;;;;;;;21.92;20.73;;;;;;;;;;5018398;28;20108;-65
2022/06/20 00:26:11;;;;;;;25.13;23.83;;;;;;;;;;5019039;28;20387;-65
2022/06/20 00:28:37;;;;;;;23.98;22.67;;;;;;;;;;5017795;28;20181;-65
2022/06/20 00:31:03;;;;;;;32.88;31.17;;;;;;;;;;5017691;28;20111;-65
2022/06/20 00:33:29;;;;;;;28.92;27.42;;;;;;;;;;5018026;28;20049;-66
2022/06/20 00:35:54;;;;;;;40.13;38.10;;;;;;;;;;5019339;28;20040;-66
2022/06/20 00:38:22;;;;;;;40.60;38.50;;;;;;;;;;5018232;28;20041;-66
2022/06/20 00:40:51;;;;;;;38.53;36.53;;;;;;;;;;5015767;28;20053;-66
2022/06/20 00:43:25;;;;;;;41.75;39.58;;;;;;;;;;5018013;28;20026;-66
2022/06/20 00:45:54;;;;;;;32.58;30.88;;;;;;;;;;5016452;28;20030;-66
2022/06/20 00:48:38;;;;;;;36.17;34.33;;;;;;;;;;5019353;28;20026;-65
2022/06/20 00:51:17;;;;;;;40.55;38.47;;;;;;;;;;5020191;28;20036;-65
2022/06/20 00:54:15;;;;;;;34.28;32.42;;;;;;;;;;5019852;28;20061;-65
2022/06/20 00:56:50;;;;;;;51.17;48.58;;;;;;;;;;5016014;28;20592;-66
2022/06/20 00:59:22;;;;;;;39.63;37.63;;;;;;;;;;5019039;28;20065;-66
2022/06/20 01:01:49;;;;;;;41.97;39.83;;;;;;;;;;5019358;28;20064;-66
2022/06/20 01:04:33;;;;;;;45.17;42.67;;;;;;;;;;5019526;28;20116;-66
2022/06/20 01:07:02;;;;;;;42.45;40.25;;;;;;;;;;5020078;28;20112;-66
2022/06/20 01:09:33;;;;;;;39.30;37.30;;;;;;;;;;5015854;28;20034;-66
2022/06/20 01:12:02;;;;;;;35.90;34.08;;;;;;;;;;5015294;28;20544;-66
2022/06/20 01:14:37;;;;;;;38.10;36.15;;;;;;;;;;5016913;28;20509;-66
2022/06/20 01:17:07;;;;;;;37.70;35.80;;;;;;;;;;5016095;28;20056;-66
2022/06/20 01:19:44;;;;;;;30.67;28.98;;;;;;;;;;5020031;28;20059;-65
2022/06/20 01:22:29;;;;;;;41.08;38.97;;;;;;;;;;5018636;28;20048;-66
2022/06/20 01:25:24;;;;;;;35.45;33.60;;;;;;;;;;5018554;28;20382;-66
2022/06/20 01:27:51;;;;;;;43.35;41.10;;;;;;;;;;5018250;28;20456;-66
2022/06/20 01:30:19;;;;;;;41.20;39.10;;;;;;;;;;5020320;28;20037;-66
2022/06/20 01:32:44;;;;;;;37.63;35.63;;;;;;;;;;5017211;28;20052;-66
2022/06/20 01:37:23;;;;;;;34.03;32.25;;;;;;;;;;5016558;28;20037;-66
2022/06/20 01:37:59;;;;;;;35.33;33.42;;;;;;;;;;5015571;28;20611;-66
2022/06/20 01:40:25;;;;;;;40.92;38.80;;;;;;;;;;5017326;28;20081;-65
2022/06/20 01:42:51;;;;;;;41.28;39.17;;;;;;;;;;5015847;28;20130;-67
2022/06/20 01:48:06;;;;;;;36.78;34.88;;;;;;;;;;5015876;28;20124;-66
2022/06/20 01:50:33;;;;;;;42.13;40.03;;;;;;;;;;5016991;28;20037;-66
2022/06/20 01:53:03;;;;;;;38.90;36.90;;;;;;;;;;5017197;28;20222;-66
2022/06/20 01:55:30;;;;;;;39.60;37.53;;;;;;;;;;5019580;28;20846;-66
2022/06/20 01:58:05;;;;;;;43.03;40.83;;;;;;;;;;5020244;28;20100;-66
2022/06/20 02:00:30;;;;;;;42.90;40.72;;;;;;;;;;5016265;28;20526;-66
2022/06/20 02:03:01;;;;;;;40.38;37.97;;;;;;;;;;5014608;28;20073;-66
2022/06/20 02:05:28;;;;;;;;;;;;;;;;;;5018028;28;20099;-66
2022/06/20 02:07:58;;;;;;;43.92;41.70;;;;;;;;;;5017204;28;19929;-66
2022/06/20 02:10:31;;;;;;;38.88;36.88;;;;;;;;;;5019948;28;20029;-66
2022/06/20 02:13:00;;;;;;;38.13;36.17;;;;;;;;;;5020467;28;20025;-66
2022/06/20 02:15:27;;;;;;;41.70;39.53;;;;;;;;;;5014310;28;20094;-66
2022/06/20 02:17:54;;;;;;;38.92;36.92;;;;;;;;;;5012819;28;20077;-66
2022/06/20 02:20:25;;;;;;;40.65;38.55;;;;;;;;;;5017270;28;20029;-66
2022/06/20 02:22:52;;;;;;;36.00;34.13;;;;;;;;;;5014164;28;20135;-66
2022/06/20 02:25:22;;;;;;;36.42;34.53;;;;;;;;;;5015305;28;20033;-66
2022/06/20 02:27:59;;;;;;;38.17;36.17;;;;;;;;;;5015899;28;20478;-66
2022/06/20 02:30:24;;;;;;;31.23;29.63;;;;;;;;;;5016173;28;20033;-66
2022/06/20 02:32:55;;;;;;;30.05;28.45;;;;;;;;;;5014203;28;20171;-66
2022/06/20 02:35:21;;;;;;;26.30;24.90;;;;;;;;;;5018484;28;20476;-66
2022/06/20 02:37:47;;;;;;;23.15;21.92;;;;;;;;;;5017096;28;20042;-65
2022/06/20 02:40:17;;;;;;;28.83;27.13;;;;;;;;;;5016121;28;20037;-66
2022/06/20 02:42:51;;;;;;;22.08;20.67;;;;;;;;;;5015721;28;20041;-66
2022/06/20 02:45:18;;;;;;;18.48;17.48;;;;;;;;;;5016635;28;20117;-66
2022/06/20 02:47:47;;;;;;;18.45;17.45;;;;;;;;;;5014667;28;20032;-66
2022/06/20 02:50:16;;;;;;;20.80;19.60;;;;;;;;;;5016198;28;20061;-66
2022/06/20 02:52:49;;;;;;;30.58;28.85;;;;;;;;;;5014346;28;20034;-66
2022/06/20 02:55:16;;;;;;;34.53;32.63;;;;;;;;;;5015328;28;20160;-66
2022/06/20 02:57:49;;;;;;;26.77;25.27;;;;;;;;;;5012438;28;20167;-66
2022/06/20 03:00:19;;;;;;;31.48;29.75;;;;;;;;;;5014802;28;20029;-66
2022/06/20 03:02:59;;;;;;;29.50;27.77;;;;;;;;;;5014035;28;20041;-66
2022/06/20 03:05:24;;;;;;;35.15;33.08;;;;;;;;;;5014191;28;20045;-66
2022/06/20 03:07:51;;;;;;;33.88;31.88;;;;;;;;;;5018742;28;20042;-65
2022/06/20 03:10:25;;;;;;;53.97;50.55;;;;;;;;;;5017604;28;20034;-66
2022/06/20 03:12:51;;;;;;;43.33;40.88;;;;;;;;;;5018967;28;20038;-66
2022/06/20 03:15:16;;;;;;;42.38;40.00;;;;;;;;;;5015755;28;20600;-65
2022/06/20 03:17:45;;;;;;;52.42;49.38;;;;;;;;;;5014923;28;20056;-65
2022/06/20 03:20:13;;;;;;;45.13;42.55;;;;;;;;;;5017988;28;20519;-66
2022/06/20 03:23:02;;;;;;;47.70;44.92;;;;;;;;;;5017719;28;20045;-65
2022/06/20 03:25:28;;;;;;;55.10;51.97;;;;;;;;;;5014739;28;20046;-66
2022/06/20 03:27:53;;;;;;;65.93;61.70;;;;;;;;;;5013828;28;20098;-66
2022/06/20 03:30:25;;;;;;;55.70;52.60;;;;;;;;;;5016222;28;20101;-65
2022/06/20 03:32:51;;;;;;;54.67;51.53;;;;;;;;;;5017030;28;20056;-65
2022/06/20 03:35:16;;;;;;;62.83;59.08;;;;;;;;;;5016192;28;20120;-65
2022/06/20 03:37:42;;;;;;;51.33;48.38;;;;;;;;;;5016453;28;20057;-65
2022/06/20 03:40:09;;;;;;;55.40;52.22;;;;;;;;;;5019667;28;20045;-65
2022/06/20 03:42:34;;;;;;;55.58;52.35;;;;;;;;;;5017515;28;20536;-65
2022/06/20 03:45:03;;;;;;;66.93;63.05;;;;;;;;;;5014384;28;20033;-65
2022/06/20 03:47:53;;;;;;;91.13;85.25;;;;;;;;;;5014852;28;20033;-64
2022/06/20 03:50:32;;;;;;;81.05;75.72;;;;;;;;;;5014385;28;20029;-64
2022/06/20 03:53:05;;;;;;;85.38;79.80;;;;;;;;;;5015349;28;20042;-65
2022/06/20 03:55:36;;;;;;;79.10;74.28;;;;;;;;;;5013243;28;20065;-64
2022/06/20 03:58:08;;;;;;;70.80;66.50;;;;;;;;;;5012078;28;20048;-65
2022/06/20 04:00:45;;;;;;;110.43;103.22;;;;;;;;;;5018071;28;20049;-64
2022/06/20 04:03:20;;;;;;;99.53;93.43;;;;;;;;;;5018092;28;20451;-64
2022/06/20 04:06:06;;;;;;;78.97;74.05;;;;;;;;;;5016028;28;20038;-64
2022/06/20 04:11:36;;;;;;;80.30;75.35;;;;;;;;;;5014495;28;20392;-64
2022/06/20 04:14:08;;;;;;;102.70;96.15;;;;;;;;;;5015420;28;20136;-64
2022/06/20 04:16:44;;;;;;;85.00;80.00;;;;;;;;;;5016450;28;20036;-66
2022/06/20 04:19:28;;;;;;;93.07;87.32;;;;;;;;;;5014961;28;20045;-64
2022/06/20 04:22:03;;;;;;;105.70;99.13;;;;;;;;;;5015160;28;20411;-64
2022/06/20 04:25:03;;;;;;;97.78;91.30;;;;;;;;;;5021080;28;20530;-65
2022/06/20 04:27:31;;;;;;;83.38;78.28;;;;;;;;;;5017590;28;20034;-64
2022/06/20 04:30:06;;;;;;;73.30;68.78;;;;;;;;;;5015414;28;20026;-64
2022/06/20 04:33:00;;;;;;;103.55;97.05;;;;;;;;;;5012635;28;20111;-64
2022/06/20 04:35:39;;;;;;;114.05;106.53;;;;;;;;;;5015675;28;20117;-64
2022/06/20 04:38:24;;;;;;;112.70;105.15;;;;;;;;;;5016452;28;20022;-64
2022/06/20 04:40:58;;;;;;;94.38;88.13;;;;;;;;;;5016404;28;20026;-64
2022/06/20 04:43:33;;;;;;;120.38;112.40;;;;;;;;;;5015727;28;20106;-64
2022/06/20 04:46:10;;;;;;;139.20;130.25;;;;;;;;;;5016394;28;20537;-64
2022/06/20 04:48:35;;;;;;;71.07;66.85;;;;;;;;;;5012819;28;20033;-63
2022/06/20 04:51:06;;;;;;;72.95;68.70;;;;;;;;;;5012371;28;20044;-63
2022/06/20 04:53:38;;;;;;;43.85;41.38;;;;;;;;;;5016712;28;20423;-63
2022/06/20 04:56:07;;;;;;;35.35;33.42;;;;;;;;;;5018211;28;20373;-64
2022/06/20 04:58:36;;;;;;;33.55;31.75;;;;;;;;;;5017861;28;20029;-63
2022/06/20 05:01:03;;;;;;;32.00;30.17;;;;;;;;;;5019722;28;20033;-64
2022/06/20 05:03:36;;;;;;;40.05;37.78;;;;;;;;;;5019487;28;20038;-63
2022/06/20 05:06:05;;;;;;;29.38;27.77;;;;;;;;;;5017530;28;20071;-63
2022/06/20 05:08:39;;;;;;;25.42;24.02;;;;;;;;;;5020244;28;20048;-63
2022/06/20 05:11:28;;;;;;;37.92;35.83;;;;;;;;;;5018646;28;20383;-63
2022/06/20 05:14:24;;;;;;;28.67;27.08;;;;;;;;;;5019564;28;20108;-64
2022/06/20 05:16:53;;;;;;;32.67;30.85;;;;;;;;;;5033782;28;20030;-65
2022/06/20 05:19:26;;;;;;;30.23;28.63;;;;;;;;;;5017690;28;20064;-64
2022/06/20 05:21:56;;;;;;;30.10;28.42;;;;;;;;;;5016365;28;20133;-64
2022/06/20 05:24:27;;;;;;;25.30;23.95;;;;;;;;;;5019512;28;20030;-64
2022/06/20 05:26:54;;;;;;;24.88;23.55;;;;;;;;;;5016667;28;20029;-63
2022/06/20 05:29:29;;;;;;;26.42;24.92;;;;;;;;;;5017740;28;20561;-63
2022/06/20 05:31:58;;;;;;;22.90;21.52;;;;;;;;;;5015976;28;20036;-63
2022/06/20 05:34:29;;;;;;;21.95;20.75;;;;;;;;;;5015860;28;20104;-63
2022/06/20 05:37:10;;;;;;;23.35;21.90;;;;;;;;;;5015886;28;20023;-62
2022/06/20 05:39:50;;;;;;;22.73;21.52;;;;;;;;;;5019228;28;20033;-63
2022/06/20 05:42:17;;;;;;;22.85;21.63;;;;;;;;;;5032393;28;20212;-63
2022/06/20 05:44:43;;;;;;;32.15;30.42;;;;;;;;;;5016942;28;20049;-63
2022/06/20 05:47:31;;;;;;;34.53;32.63;;;;;;;;;;5018135;28;20038;-63
2022/06/20 05:50:05;;;;;;;30.23;28.63;;;;;;;;;;5017634;28;20573;-62
2022/06/20 05:52:32;;;;;;;32.58;30.75;;;;;;;;;;5018909;28;20037;-62
2022/06/20 05:55:21;;;;;;;41.08;38.75;;;;;;;;;;5020023;28;20519;-63
2022/06/20 05:57:50;;;;;;;36.00;33.90;;;;;;;;;;5017343;28;20067;-62
2022/06/20 06:00:30;;;;;;;33.00;31.20;;;;;;;;;;5016668;28;20662;-62
2022/06/20 06:03:01;;;;;;;34.08;32.20;;;;;;;;;;5014785;28;20052;-63
2022/06/20 06:05:32;;;;;;;39.50;35.40;;;;;;;;;;5012218;28;20116;-63
2022/06/20 06:08:19;;;;;;;34.60;32.58;;;;;;;;;;5013847;28;20075;-63
2022/06/20 06:10:51;;;;;;;25.67;24.27;;;;;;;;;;5021517;28;20570;-63
2022/06/20 06:13:46;;;;;;;31.55;29.85;;;;;;;;;;5017240;28;20041;-63
2022/06/20 06:19:22;;;;;;;26.98;25.48;;;;;;;;;;5016580;28;20025;-62
2022/06/20 06:21:49;;;;;;;41.33;39.05;;;;;;;;;;5017410;28;20079;-62
2022/06/20 06:24:22;;;;;;;41.15;38.85;;;;;;;;;;5012770;28;20113;-63
2022/06/20 06:26:49;;;;;;;32.85;31.08;;;;;;;;;;5015808;28;20042;-63
2022/06/20 06:29:46;;;;;;;49.25;45.90;;;;;;;;;;5019271;28;20061;-63
2022/06/20 06:32:17;;;;;;;49.47;46.78;;;;;;;;;;5009502;28;20812;-63
2022/06/20 06:34:55;;;;;;;87.05;81.93;;;;;;;;;;5012439;28;20041;-64
2022/06/20 06:37:50;;;;;;;110.80;104.30;;;;;;;;;;5013575;28;20057;-65
2022/06/20 06:40:30;;;;;;;95.00;89.32;;;;;;;;;;5014439;28;20038;-66
2022/06/20 06:42:58;;;;;;;45.50;43.03;;;;;;;;;;5010933;28;20048;-66
2022/06/20 06:45:26;;;;;;;62.17;58.97;;;;;;;;;;5009501;28;20042;-66
2022/06/20 06:47:59;;;;;;;51.58;48.85;;;;;;;;;;5014805;28;20522;-66
2022/06/20 06:50:24;;;;;;;54.95;52.13;;;;;;;;;;5013155;28;20491;-66
2022/06/20 06:52:57;;;;;;;64.93;61.63;;;;;;;;;;5007215;28;20141;-66
2022/06/20 06:55:25;;;;;;;74.25;70.53;;;;;;;;;;5014570;28;20036;-66
2022/06/20 06:57:59;;;;;;;63.33;60.15;;;;;;;;;;5016957;28;20053;-65
2022/06/20 07:00:33;;;;;;;70.82;67.28;;;;;;;;;;5017153;28;20038;-66
2022/06/20 07:03:04;;;;;;;57.55;54.65;;;;;;;;;;5015879;28;20102;-65
2022/06/20 07:05:37;;;;;;;55.00;52.22;;;;;;;;;;5015342;28;20057;-65
2022/06/20 07:08:08;;;;;;;54.85;52.05;;;;;;;;;;5018487;28;20536;-65
2022/06/20 07:10:45;;;;;;;38.80;36.75;;;;;;;;;;5018450;28;20041;-65
2022/06/20 07:13:39;;;;;;;53.38;50.67;;;;;;;;;;5014561;28;20061;-65
2022/06/20 07:16:16;;;;;;;31.73;30.02;;;;;;;;;;5016023;28;20120;-65
2022/06/20 07:18:46;;;;;;;28.30;26.75;;;;;;;;;;5014431;28;20713;-65
2022/06/20 07:21:15;;;;;;;24.40;23.08;;;;;;;;;;5013608;28;20052;-65
2022/06/20 07:23:48;;;;;;;33.50;31.75;;;;;;;;;;5009069;28;20033;-65
2022/06/20 07:26:17;;;;;;;35.65;33.80;;;;;;;;;;5010198;28;20034;-65
2022/06/20 07:28:55;;;;;;;25.58;24.20;;;;;;;;;;5012648;28;20440;-65
2022/06/20 07:31:36;;;;;;;31.75;30.08;;;;;;;;;;5011259;28;20060;-65
2022/06/20 07:34:23;;;;;;;34.45;32.67;;;;;;;;;;5021486;28;20044;-65
2022/06/20 07:36:59;;;;;;;40.00;37.92;;;;;;;;;;5011869;28;20084;-65
2022/06/20 07:39:36;;;;;;;19.90;18.77;;;;;;;;;;5014692;28;20033;-65
2022/06/20 07:42:25;;;;;;;20.20;19.08;;;;;;;;;;5019309;28;20616;-65
2022/06/20 07:44:59;;;;;;;20.52;19.13;;;;;;;;;;5010596;28;20460;-66
2022/06/20 07:47:34;;;;;;;19.40;18.33;;;;;;;;;;5013325;28;20518;-65
2022/06/20 07:50:11;;;;;;;31.83;30.10;;;;;;;;;;5016496;28;20667;-65
2022/06/20 07:52:49;;;;;;;15.75;14.85;;;;;;;;;;5014583;28;20041;-65
2022/06/20 07:55:19;;;;;;;32.95;31.13;;;;;;;;;;5017521;28;20045;-65
2022/06/20 07:57:51;;;;;;;36.42;34.33;;;;;;;;;;5015669;28;20049;-64
2022/06/20 08:00:20;;;;;;;13.88;13.07;;;;;;;;;;5015473;28;20036;-65
2022/06/20 08:02:51;;;;;;;27.90;26.35;;;;;;;;;;5015754;28;20061;-64
2022/06/20 08:05:35;;;;;;;31.27;29.58;;;;;;;;;;5011639;28;20038;-66
2022/06/20 08:08:06;;;;;;;26.55;25.05;;;;;;;;;;5032245;28;20144;-65
2022/06/20 08:10:44;;;;;;;16.73;15.82;;;;;;;;;;5015701;28;20052;-64
2022/06/20 08:13:18;;;;;;;22.90;21.65;;;;;;;;;;5013776;28;20056;-63
2022/06/20 08:16:02;;;;;;;25.67;24.30;;;;;;;;;;5013093;28;20038;-65
2022/06/20 08:18:28;;;;;;;21.48;20.25;;;;;;;;;;5009481;28;20034;-65
2022/06/20 08:21:04;;;;;;;17.05;15.98;;;;;;;;;;5010443;28;20051;-65
2022/06/20 08:23:39;;;;;;;15.65;14.73;;;;;;;;;;5010022;28;20158;-65
2022/06/20 08:26:12;;;;;;;11.52;10.73;;;;;;;;;;5012255;28;20038;-65
2022/06/20 08:28:53;;;;;;;9.45;8.85;;;;;;;;;;5010531;28;20132;-64
2022/06/20 08:31:31;;;;;;;10.35;9.70;;;;;;;;;;5014773;28;20034;-64
2022/06/20 08:34:00;;;;;;;9.90;9.23;;;;;;;;;;5021004;28;20033;-64
2022/06/20 08:36:33;;;;;;;8.15;7.65;;;;;;;;;;5020808;28;20026;-64
2022/06/20 08:39:07;;;;;;;9.98;9.32;;;;;;;;;;5019339;28;20025;-64
2022/06/20 08:41:42;;;;;;;12.00;11.05;;;;;;;;;;5016842;28;20030;-63
2022/06/20 08:44:36;;;;;;;12.57;11.77;;;;;;;;;;5014253;28;20080;-63
2022/06/20 08:47:38;;;;;;;16.10;15.20;;;;;;;;;;5015771;28;20037;-63
2022/06/20 08:50:22;;;;;;;14.75;13.93;;;;;;;;;;5011659;28;20431;-64
2022/06/20 08:53:05;;;;;;;14.98;14.15;;;;;;;;;;5012617;28;20048;-63
2022/06/20 08:55:40;;;;;;;12.80;12.02;;;;;;;;;;5019506;28;20033;-64
2022/06/20 08:58:10;;;;;;;15.93;15.02;;;;;;;;;;5019464;28;20034;-63
2022/06/20 09:01:15;;;;;;;14.40;13.60;;;;;;;;;;5018610;28;20060;-64
2022/06/20 09:04:07;;;;;;;14.35;13.55;;;;;;;;;;4962926;28;20043;-63
2022/06/20 09:07:17;;;;;;;13.90;13.10;;;;;;;;;;5017003;28;20133;-64
2022/06/20 09:10:04;;;;;;;11.25;10.55;;;;;;;;;;5016864;28;20052;-64
2022/06/20 09:12:45;;;;;;;10.63;10.02;;;;;;;;;;5017886;28;20530;-64
2022/06/20 09:15:25;;;;;;;;;;;;;;;;;;5019815;28;20133;-64
2022/06/20 09:17:59;;;;;;;10.60;10.00;;;;;;;;;;5018553;28;19913;-64
2022/06/20 09:20:35;;;;;;;9.27;8.68;;;;;;;;;;5019216;28;20335;-64
2022/06/20 09:23:16;;;;;;;10.55;9.95;;;;;;;;;;5014523;28;20980;-65
2022/06/20 09:25:49;;;;;;;10.32;9.73;;;;;;;;;;5021618;28;20117;-66
2022/06/20 09:28:37;;;;;;;8.80;8.23;;;;;;;;;;5021206;28;20041;-65
2022/06/20 09:31:33;;;;;;;11.07;10.38;;;;;;;;;;5028832;28;20084;-66
2022/06/20 09:34:32;;;;;;;8.45;7.95;;;;;;;;;;5018885;28;20091;-66
2022/06/20 09:37:19;;;;;;;9.25;8.65;;;;;;;;;;5019229;28;20044;-66
2022/06/20 09:40:06;;;;;;;9.43;8.82;;;;;;;;;;5017105;28;20104;-66
2022/06/20 09:42:46;;;;;;;8.32;7.75;;;;;;;;;;5020492;28;20033;-65
2022/06/20 09:45:33;;;;;;;14.70;13.90;;;;;;;;;;5016835;28;20029;-64
2022/06/20 09:48:12;;;;;;;18.20;17.20;;;;;;;;;;5016610;28;20645;-65
2022/06/20 09:51:05;;;;;;;13.05;12.27;;;;;;;;;;5018129;28;20098;-64
2022/06/20 09:53:45;;;;;;;14.07;13.27;;;;;;;;;;5017453;28;20076;-67
2022/06/20 09:56:27;;;;;;;12.88;12.13;;;;;;;;;;5022024;28;20474;-66
2022/06/20 09:59:15;;;;;;;16.65;15.50;;;;;;;;;;5019499;28;20038;-67
2022/06/20 10:02:18;;;;;;;14.68;13.88;;;;;;;;;;5015962;28;20525;-66
2022/06/20 10:04:48;;;;;;;15.18;14.27;;;;;;;;;;5015727;28;20055;-65
2022/06/20 10:07:41;;;;;;;14.00;13.20;;;;;;;;;;5012888;28;20117;-64
2022/06/20 10:10:15;;;;;;;13.85;13.05;;;;;;;;;;5015630;28;20046;-63
2022/06/20 10:13:08;;;;;;;13.57;12.77;;;;;;;;;;5016370;28;20037;-64
2022/06/20 10:15:55;;;;;;;10.85;10.18;;;;;;;;;;5011346;28;20051;-66
2022/06/20 10:18:54;;;;;;;10.63;10.02;;;;;;;;;;5011882;28;20623;-64
2022/06/20 10:21:25;;;;;;;9.93;9.32;;;;;;;;;;5012073;28;20609;-64
2022/06/20 10:24:28;;;;;;;9.45;8.85;;;;;;;;;;5015531;28;20045;-64
2022/06/20 10:27:06;;;;;;;10.40;9.75;;;;;;;;;;5017592;28;20080;-65
2022/06/20 10:29:54;;;;;;;10.98;10.27;;;;;;;;;;5017217;28;20042;-65
2022/06/20 10:32:42;;;;;;;10.10;9.50;;;;;;;;;;5016080;28;20044;-65
2022/06/20 10:35:35;;;;;;;10.88;10.18;;;;;;;;;;5019791;28;20099;-65
2022/06/20 10:38:12;;;;;;;11.30;10.60;;;;;;;;;;5016424;28;20918;-66
2022/06/20 10:40:56;;;;;;;10.77;10.07;;;;;;;;;;5019935;28;20041;-65
2022/06/20 10:43:43;;;;;;;12.07;11.38;;;;;;;;;;5013342;28;20033;-65
2022/06/20 10:46:22;;;;;;;13.23;12.43;;;;;;;;;;5011631;28;20041;-64
2022/06/20 10:49:04;;;;;;;12.88;12.07;;;;;;;;;;5013918;28;20478;-63
2022/06/20 10:52:12;;;;;;;12.25;11.55;;;;;;;;;;5013892;28;20064;-64
2022/06/20 10:55:04;;;;;;;11.70;11.00;;;;;;;;;;5018499;28;20033;-66
2022/06/20 10:57:53;;;;;;;13.05;12.27;;;;;;;;;;5018185;28;20962;-63
2022/06/20 11:00:20;;;;;;;13.68;12.88;;;;;;;;;;5017855;28;20097;-65
2022/06/20 11:03:11;;;;;;;12.68;11.98;;;;;;;;;;5018340;28;20052;-63
2022/06/20 11:06:01;;;;;;;12.50;11.80;;;;;;;;;;5014325;28;20040;-62
2022/06/20 11:08:48;;;;;;;10.90;10.25;;;;;;;;;;5013986;28;20037;-62
2022/06/20 11:11:35;;;;;;;17.65;16.65;;;;;;;;;;5017331;28;20379;-62
2022/06/20 11:14:06;;;;;;;13.27;12.48;;;;;;;;;;5016865;28;20489;-62
2022/06/20 11:16:46;;;;;;;18.30;17.30;;;;;;;;;;5015286;28;20135;-62
2022/06/20 11:19:30;;;;;;;13.63;12.82;;;;;;;;;;5015723;28;20048;-61
2022/06/20 11:22:14;;;;;;;17.88;16.88;;;;;;;;;;5015168;28;20045;-62
2022/06/20 11:24:47;;;;;;;17.30;16.30;;;;;;;;;;5015357;28;20026;-61
2022/06/20 11:27:23;;;;;;;16.95;16.02;;;;;;;;;;5020635;28;20374;-62
2022/06/20 11:29:51;;;;;;;18.05;17.05;;;;;;;;;;5015456;28;20055;-61
2022/06/20 11:32:58;;;;;;;14.43;13.63;;;;;;;;;;5017544;28;20037;-62
2022/06/20 11:35:46;;;;;;;16.05;15.15;;;;;;;;;;5004420;28;20088;-61
2022/06/20 11:38:27;;;;;;;12.20;11.50;;;;;;;;;;5015727;28;20026;-61
2022/06/20 11:41:02;;;;;;;10.07;9.48;;;;;;;;;;5016401;28;20041;-61
2022/06/20 11:43:51;;;;;;;10.70;10.07;;;;;;;;;;5016812;28;20044;-61
2022/06/20 11:46:51;;;;;;;11.05;10.35;;;;;;;;;;5021901;28;20039;-61
2022/06/20 11:49:22;;;;;;;10.50;9.85;;;;;;;;;;5015803;28;20474;-62
2022/06/20 11:51:53;;;;;;;11.75;11.05;;;;;;;;;;5016807;28;20037;-62
2022/06/20 11:54:56;;;;;;;8.95;8.35;;;;;;;;;;5017033;28;20029;-62
2022/06/20 11:57:33;;;;;;;9.98;9.38;;;;;;;;;;5016999;28;20106;-62
2022/06/20 12:00:05;;;;;;;12.48;11.77;;;;;;;;;;5010931;28;20036;-61
2022/06/20 12:02:45;;;;;;;11.25;10.55;;;;;;;;;;5015655;28;20040;-62
2022/06/20 12:05:17;;;;;;;11.18;10.48;;;;;;;;;;5019060;28;20529;-62
2022/06/20 12:07:54;;;;;;;10.95;10.25;;;;;;;;;;5020013;28;20054;-62
2022/06/20 12:10:40;;;;;;;12.75;12.00;;;;;;;;;;5020708;28;20034;-61
2022/06/20 12:13:13;;;;;;;10.70;10.05;;;;;;;;;;5021636;28;20101;-62
2022/06/20 12:16:02;;;;;;;12.32;11.63;;;;;;;;;;5017387;28;20030;-62
2022/06/20 12:23:18;;;;;;;12.77;12.07;;;;;;;;;;5019576;28;20108;-62
2022/06/20 12:24:15;;;;;;;12.80;12.00;;;;;;;;;;5018362;28;20041;-62
2022/06/20 12:26:40;;;;;;;11.73;11.02;;;;;;;;;;5019291;28;20076;-62
2022/06/20 12:29:26;;;;;;;13.45;12.65;;;;;;;;;;5018300;28;20661;-62
2022/06/20 12:31:56;;;;;;;12.88;12.15;;;;;;;;;;5019871;28;20483;-63
2022/06/20 12:34:46;;;;;;;11.20;10.50;;;;;;;;;;5019570;28;20038;-63
2022/06/20 12:37:11;;;;;;;11.77;11.07;;;;;;;;;;5015867;28;20494;-62
2022/06/20 12:39:38;;;;;;;12.40;11.70;;;;;;;;;;5019479;28;20060;-63
2022/06/20 12:42:20;;;;;;;13.70;12.90;;;;;;;;;;5020165;28;20038;-62
2022/06/20 12:44:56;;;;;;;16.65;15.75;;;;;;;;;;5020034;28;20391;-62
2022/06/20 12:47:34;;;;;;;14.63;13.82;;;;;;;;;;5018801;28;20022;-62
2022/06/20 12:50:18;;;;;;;15.23;14.35;;;;;;;;;;5022708;28;20029;-62
2022/06/20 12:52:52;;;;;;;16.42;15.52;;;;;;;;;;5019245;28;20045;-62
2022/06/20 12:55:28;;;;;;;16.92;16.02;;;;;;;;;;5017375;28;20045;-62
2022/06/20 12:58:09;;;;;;;18.17;17.17;;;;;;;;;;5016632;28;20065;-62
2022/06/20 13:01:13;;;;;;;13.20;12.43;;;;;;;;;;5019498;28;20175;-62
2022/06/20 13:03:57;;;;;;;13.82;13.02;;;;;;;;;;5015501;28;20476;-62
2022/06/20 13:06:44;;;;;;;10.63;10.00;;;;;;;;;;5018931;28;20037;-62
2022/06/20 13:09:32;;;;;;;10.45;9.85;;;;;;;;;;5019080;28;20045;-62
2022/06/20 13:12:23;;;;;;;10.80;10.18;;;;;;;;;;5018090;28;20406;-61
2022/06/20 13:15:06;;;;;;;;;;;;;;;;;;5015595;28;20123;-62
2022/06/20 13:17:54;;;;;;;9.50;8.90;;;;;;;;;;5025194;28;19923;-62
2022/06/20 13:20:40;;;;;;;11.52;10.82;;;;;;;;;;5017333;28;20045;-61
2022/06/20 13:23:47;;;;;;;11.05;10.38;;;;;;;;;;5009249;28;20045;-62
2022/06/20 13:26:39;;;;;;;12.50;11.80;;;;;;;;;;5018243;28;20099;-62
2022/06/20 13:29:16;;;;;;;10.60;10.00;;;;;;;;;;5017447;28;20525;-61
2022/06/20 13:31:50;;;;;;;10.05;9.45;;;;;;;;;;5019143;28;20056;-61
2022/06/20 13:35:14;;;;;;;9.32;8.73;;;;;;;;;;5019589;28;20420;-61
2022/06/20 13:38:10;;;;;;;9.82;9.23;;;;;;;;;;5028587;28;20055;-61
2022/06/20 13:40:59;;;;;;;10.63;10.00;;;;;;;;;;5017609;28;20040;-61
2022/06/20 13:43:27;;;;;;;10.85;10.18;;;;;;;;;;5018700;28;20153;-61
2022/06/20 13:46:15;;;;;;;12.30;11.60;;;;;;;;;;5016220;28;20038;-61
2022/06/20 13:49:03;;;;;;;12.38;11.68;;;;;;;;;;5019835;28;20060;-61
2022/06/20 13:51:47;;;;;;;12.25;11.55;;;;;;;;;;5015136;28;20030;-61
2022/06/20 13:54:15;;;;;;;12.52;11.68;;;;;;;;;;5020294;28;20030;-61
2022/06/20 13:57:04;;;;;;;12.25;11.55;;;;;;;;;;5018049;28;20021;-61
2022/06/20 13:59:45;;;;;;;11.70;11.00;;;;;;;;;;5017281;28;20029;-61
2022/06/20 14:02:32;;;;;;;10.43;9.82;;;;;;;;;;5016915;28;20044;-61
2022/06/20 14:05:06;;;;;;;13.13;12.35;;;;;;;;;;5017804;28;20049;-62
2022/06/20 14:07:31;;;;;;;11.77;11.07;;;;;;;;;;5016008;28;20041;-62
2022/06/20 14:09:59;;;;;;;11.95;11.25;;;;;;;;;;5018173;28;20030;-61
2022/06/20 14:12:41;;;;;;;14.82;14.00;;;;;;;;;;5016139;28;20036;-61
2022/06/20 14:15:18;;;;;;;18.48;17.48;;;;;;;;;;5016472;28;20490;-61
2022/06/20 14:17:52;;;;;;;17.33;16.35;;;;;;;;;;5017526;28;20037;-62
2022/06/20 14:20:28;;;;;;;17.13;16.15;;;;;;;;;;5017242;28;20095;-61
2022/06/20 14:22:56;;;;;;;23.55;22.33;;;;;;;;;;5016651;28;20072;-62
2022/06/20 14:25:30;;;;;;;22.33;21.13;;;;;;;;;;5016581;28;20040;-62
2022/06/20 14:27:56;;;;;;;21.27;20.17;;;;;;;;;;5017126;28;20065;-62
2022/06/20 14:30:37;;;;;;;18.27;17.27;;;;;;;;;;5018486;28;20037;-62
2022/06/20 14:33:22;;;;;;;30.00;28.08;;;;;;;;;;5017500;28;20141;-62
2022/06/20 14:36:06;;;;;;;28.90;27.40;;;;;;;;;;5018745;28;20788;-61
2022/06/20 14:38:47;;;;;;;31.60;29.98;;;;;;;;;;5019322;28;20062;-62
2022/06/20 14:44:35;;;;;;;41.08;38.97;;;;;;;;;;5017173;28;20655;-62
2022/06/20 14:47:14;;;;;;;34.05;32.28;;;;;;;;;;5012381;28;20505;-63
2022/06/20 14:50:02;;;;;;;45.10;42.80;;;;;;;;;;5014044;28;20462;-62
2022/06/20 14:52:28;;;;;;;51.83;49.22;;;;;;;;;;5015953;28;20562;-62
2022/06/20 14:54:56;;;;;;;47.15;44.78;;;;;;;;;;5015435;28;20128;-62
2022/06/20 14:57:53;;;;;;;40.40;38.33;;;;;;;;;;5015304;28;20025;-61
2022/06/20 15:00:43;;;;;;;48.65;46.20;;;;;;;;;;5017747;28;20116;-62
2022/06/20 15:03:22;;;;;;;36.83;34.92;;;;;;;;;;5016147;28;20122;-62
2022/06/20 15:06:12;;;;;;;30.13;28.52;;;;;;;;;;5019785;28;20040;-62
2022/06/20 15:08:38;;;;;;;;;;;;;;;;;;5017357;28;20110;-62
2022/06/20 15:11:08;;;;;;;39.53;37.53;;;;;;;;;;5013302;28;19913;-62
2022/06/20 15:13:41;;;;;;;35.45;33.60;;;;;;;;;;5015876;28;20851;-63
2022/06/20 15:16:34;;;;;;;35.50;33.70;;;;;;;;;;5016016;28;20620;-62
2022/06/20 15:19:26;;;;;;;35.17;33.38;;;;;;;;;;5015287;28;20069;-61
2022/06/20 15:21:57;;;;;;;36.13;34.28;;;;;;;;;;5016657;28;20463;-62
2022/06/20 15:24:25;;;;;;;;;;;;;;;;;;5023982;28;20100;-62
2022/06/20 15:27:43;;;;;;;23.10;21.90;;;;;;;;;;5017848;28;19965;-62
2022/06/20 15:30:18;;;;;;;24.20;22.90;;;;;;;;;;5005731;28;20608;-62
2022/06/20 15:32:45;;;;;;;26.35;24.95;;;;;;;;;;5017203;28;20260;-63
2022/06/20 15:38:50;;;;;;;23.60;22.35;;;;;;;;;;5015304;28;20048;-62